sensor_id;sensor_type;location;lat;lon;timestamp;P1;durP1;ratioP1;P2;durP2;ratioP2
19675;SDS011;39539;52.202;9.876;2023-05-02T00:00:40;8.80;;;7.95;;
19675;SDS011;39539;52.202;9.876;2023-05-02T00:03:06;7.43;;;6.80;;
19675;SDS011;39539;52.202;9.876;2023-05-02T00:05:33;7.85;;;7.15;;
19675;SDS011;39539;52.202;9.876;2023-05-02T00:07:59;7.68;;;7.07;;
19675;SDS011;39539;52.202;9.876;2023-05-02T00:10:24;8.15;;;7.47;;
19675;SDS011;39539;52.202;9.876;2023-05-02T00:12:51;8.02;;;7.32;;
19675;SDS011;39539;52.202;9.876;2023-05-02T00:15:16;8.02;;;7.43;;
19675;SDS011;39539;52.202;9.876;2023-05-02T00:17:42;7.82;;;7.22;;
19675;SDS011;39539;52.202;9.876;2023-05-02T00:20:09;8.60;;;7.80;;
19675;SDS011;39539;52.202;9.876;2023-05-02T00:22:35;7.57;;;6.90;;
19675;SDS011;39539;52.202;9.876;2023-05-02T00:25:01;8.23;;;7.43;;
19675;SDS011;39539;52.202;9.876;2023-05-02T00:27:27;8.27;;;7.43;;
19675;SDS011;39539;52.202;9.876;2023-05-02T00:29:54;8.30;;;7.60;;
19675;SDS011;39539;52.202;9.876;2023-05-02T00:32:19;8.15;;;7.55;;
19675;SDS011;39539;52.202;9.876;2023-05-02T00:34:45;7.50;;;6.78;;
19675;SDS011;39539;52.202;9.876;2023-05-02T00:37:10;7.38;;;6.68;;
19675;SDS011;39539;52.202;9.876;2023-05-02T00:39:37;7.50;;;6.80;;
19675;SDS011;39539;52.202;9.876;2023-05-02T00:42:02;6.90;;;6.40;;
19675;SDS011;39539;52.202;9.876;2023-05-02T00:44:29;7.22;;;6.72;;
19675;SDS011;39539;52.202;9.876;2023-05-02T00:46:56;7.90;;;7.30;;
19675;SDS011;39539;52.202;9.876;2023-05-02T00:49:25;7.05;;;6.65;;
19675;SDS011;39539;52.202;9.876;2023-05-02T00:51:50;8.25;;;7.63;;
19675;SDS011;39539;52.202;9.876;2023-05-02T00:54:15;8.68;;;7.97;;
19675;SDS011;39539;52.202;9.876;2023-05-02T00:56:41;8.45;;;7.78;;
19675;SDS011;39539;52.202;9.876;2023-05-02T00:59:08;8.02;;;7.43;;
19675;SDS011;39539;52.202;9.876;2023-05-02T01:01:38;7.78;;;7.28;;
19675;SDS011;39539;52.202;9.876;2023-05-02T01:04:27;7.85;;;7.35;;
19675;SDS011;39539;52.202;9.876;2023-05-02T01:15:14;8.80;;;8.20;;
19675;SDS011;39539;52.202;9.876;2023-05-02T01:17:43;8.85;;;8.15;;
19675;SDS011;39539;52.202;9.876;2023-05-02T01:20:14;8.50;;;7.80;;
19675;SDS011;39539;52.202;9.876;2023-05-02T01:22:44;8.57;;;7.95;;
19675;SDS011;39539;52.202;9.876;2023-05-02T01:28:09;9.18;;;8.57;;
19675;SDS011;39539;52.202;9.876;2023-05-02T01:30:46;9.43;;;8.73;;
19675;SDS011;39539;52.202;9.876;2023-05-02T01:33:16;8.95;;;8.23;;
19675;SDS011;39539;52.202;9.876;2023-05-02T01:35:43;9.32;;;8.63;;
19675;SDS011;39539;52.202;9.876;2023-05-02T01:38:13;9.10;;;8.43;;
19675;SDS011;39539;52.202;9.876;2023-05-02T01:40:39;9.20;;;8.50;;
19675;SDS011;39539;52.202;9.876;2023-05-02T01:43:07;8.82;;;8.13;;
19675;SDS011;39539;52.202;9.876;2023-05-02T01:45:33;8.93;;;8.25;;
19675;SDS011;39539;52.202;9.876;2023-05-02T01:48:01;9.45;;;8.65;;
19675;SDS011;39539;52.202;9.876;2023-05-02T01:50:29;10.25;;;8.80;;
19675;SDS011;39539;52.202;9.876;2023-05-02T01:52:55;8.48;;;7.88;;
19675;SDS011;39539;52.202;9.876;2023-05-02T01:55:24;9.52;;;8.68;;
19675;SDS011;39539;52.202;9.876;2023-05-02T01:57:51;10.10;;;9.25;;
19675;SDS011;39539;52.202;9.876;2023-05-02T02:00:20;10.55;;;9.75;;
19675;SDS011;39539;52.202;9.876;2023-05-02T02:02:49;10.63;;;9.82;;
19675;SDS011;39539;52.202;9.876;2023-05-02T02:05:18;10.93;;;10.02;;
19675;SDS011;39539;52.202;9.876;2023-05-02T02:07:46;11.18;;;10.27;;
19675;SDS011;39539;52.202;9.876;2023-05-02T02:10:13;11.95;;;10.88;;
19675;SDS011;39539;52.202;9.876;2023-05-02T02:12:40;11.88;;;10.80;;
19675;SDS011;39539;52.202;9.876;2023-05-02T02:15:09;11.85;;;10.95;;
19675;SDS011;39539;52.202;9.876;2023-05-02T02:17:42;13.70;;;12.60;;
19675;SDS011;39539;52.202;9.876;2023-05-02T02:20:12;13.65;;;12.55;;
19675;SDS011;39539;52.202;9.876;2023-05-02T02:22:40;14.10;;;12.90;;
19675;SDS011;39539;52.202;9.876;2023-05-02T02:25:10;14.93;;;13.73;;
19675;SDS011;39539;52.202;9.876;2023-05-02T02:27:39;15.07;;;13.77;;
19675;SDS011;39539;52.202;9.876;2023-05-02T02:30:05;14.40;;;13.23;;
19675;SDS011;39539;52.202;9.876;2023-05-02T02:32:33;15.00;;;13.75;;
19675;SDS011;39539;52.202;9.876;2023-05-02T02:34:59;13.73;;;12.70;;
19675;SDS011;39539;52.202;9.876;2023-05-02T02:37:46;15.10;;;13.80;;
19675;SDS011;39539;52.202;9.876;2023-05-02T02:40:28;15.95;;;14.68;;
19675;SDS011;39539;52.202;9.876;2023-05-02T02:48:49;19.00;;;17.40;;
19675;SDS011;39539;52.202;9.876;2023-05-02T02:51:38;18.48;;;16.98;;
19675;SDS011;39539;52.202;9.876;2023-05-02T02:56:45;19.45;;;17.90;;
19675;SDS011;39539;52.202;9.876;2023-05-02T02:59:30;20.33;;;18.50;;
19675;SDS011;39539;52.202;9.876;2023-05-02T03:02:08;19.98;;;18.27;;
19675;SDS011;39539;52.202;9.876;2023-05-02T03:04:42;21.48;;;19.67;;
19675;SDS011;39539;52.202;9.876;2023-05-02T03:07:10;21.83;;;20.02;;
19675;SDS011;39539;52.202;9.876;2023-05-02T03:09:44;21.52;;;19.80;;
19675;SDS011;39539;52.202;9.876;2023-05-02T03:12:12;21.98;;;20.02;;
19675;SDS011;39539;52.202;9.876;2023-05-02T03:14:38;21.88;;;20.08;;
19675;SDS011;39539;52.202;9.876;2023-05-02T03:17:05;22.23;;;20.42;;
19675;SDS011;39539;52.202;9.876;2023-05-02T03:19:34;22.05;;;20.35;;
19675;SDS011;39539;52.202;9.876;2023-05-02T03:21:59;23.13;;;21.20;;
19675;SDS011;39539;52.202;9.876;2023-05-02T03:24:26;23.38;;;21.48;;
19675;SDS011;39539;52.202;9.876;2023-05-02T03:26:55;22.70;;;20.60;;
19675;SDS011;39539;52.202;9.876;2023-05-02T03:29:22;22.23;;;20.40;;
19675;SDS011;39539;52.202;9.876;2023-05-02T03:31:48;22.80;;;20.92;;
19675;SDS011;39539;52.202;9.876;2023-05-02T03:34:14;22.67;;;20.77;;
19675;SDS011;39539;52.202;9.876;2023-05-02T03:36:39;23.52;;;21.42;;
19675;SDS011;39539;52.202;9.876;2023-05-02T03:39:04;22.02;;;20.08;;
19675;SDS011;39539;52.202;9.876;2023-05-02T03:41:31;20.90;;;19.30;;
19675;SDS011;39539;52.202;9.876;2023-05-02T03:43:56;22.55;;;20.58;;
19675;SDS011;39539;52.202;9.876;2023-05-02T03:46:22;21.33;;;19.63;;
19675;SDS011;39539;52.202;9.876;2023-05-02T03:48:47;22.00;;;20.23;;
19675;SDS011;39539;52.202;9.876;2023-05-02T03:51:12;20.88;;;18.90;;
19675;SDS011;39539;52.202;9.876;2023-05-02T03:53:38;21.00;;;19.30;;
19675;SDS011;39539;52.202;9.876;2023-05-02T03:56:04;20.33;;;18.73;;
19675;SDS011;39539;52.202;9.876;2023-05-02T03:58:32;20.63;;;19.00;;
19675;SDS011;39539;52.202;9.876;2023-05-02T04:00:57;20.63;;;19.00;;
19675;SDS011;39539;52.202;9.876;2023-05-02T04:03:24;20.00;;;18.40;;
19675;SDS011;39539;52.202;9.876;2023-05-02T04:05:50;21.45;;;19.50;;
19675;SDS011;39539;52.202;9.876;2023-05-02T04:08:16;20.35;;;18.67;;
19675;SDS011;39539;52.202;9.876;2023-05-02T04:10:42;20.77;;;18.95;;
19675;SDS011;39539;52.202;9.876;2023-05-02T04:13:09;21.23;;;19.42;;
19675;SDS011;39539;52.202;9.876;2023-05-02T04:15:36;20.75;;;18.95;;
19675;SDS011;39539;52.202;9.876;2023-05-02T04:18:02;20.88;;;19.08;;
19675;SDS011;39539;52.202;9.876;2023-05-02T04:20:29;21.30;;;19.30;;
19675;SDS011;39539;52.202;9.876;2023-05-02T04:22:55;21.95;;;19.75;;
19675;SDS011;39539;52.202;9.876;2023-05-02T04:25:22;20.35;;;18.75;;
19675;SDS011;39539;52.202;9.876;2023-05-02T04:27:48;21.42;;;19.58;;
19675;SDS011;39539;52.202;9.876;2023-05-02T04:30:15;19.88;;;18.17;;
19675;SDS011;39539;52.202;9.876;2023-05-02T04:32:41;19.88;;;18.08;;
19675;SDS011;39539;52.202;9.876;2023-05-02T04:35:07;19.58;;;17.98;;
19675;SDS011;39539;52.202;9.876;2023-05-02T04:37:33;19.08;;;17.30;;
19675;SDS011;39539;52.202;9.876;2023-05-02T04:40:00;19.55;;;17.70;;
19675;SDS011;39539;52.202;9.876;2023-05-02T04:42:25;19.17;;;17.55;;
19675;SDS011;39539;52.202;9.876;2023-05-02T04:44:51;19.60;;;17.90;;
19675;SDS011;39539;52.202;9.876;2023-05-02T04:47:18;19.77;;;18.08;;
19675;SDS011;39539;52.202;9.876;2023-05-02T04:49:44;21.13;;;19.13;;
19675;SDS011;39539;52.202;9.876;2023-05-02T04:52:09;22.08;;;19.88;;
19675;SDS011;39539;52.202;9.876;2023-05-02T04:54:36;21.38;;;19.38;;
19675;SDS011;39539;52.202;9.876;2023-05-02T04:57:02;22.30;;;20.33;;
19675;SDS011;39539;52.202;9.876;2023-05-02T04:59:32;22.92;;;20.70;;
19675;SDS011;39539;52.202;9.876;2023-05-02T05:01:59;22.15;;;20.05;;
19675;SDS011;39539;52.202;9.876;2023-05-02T05:04:37;23.45;;;21.10;;
19675;SDS011;39539;52.202;9.876;2023-05-02T05:07:02;22.98;;;20.90;;
19675;SDS011;39539;52.202;9.876;2023-05-02T05:09:28;22.55;;;20.45;;
19675;SDS011;39539;52.202;9.876;2023-05-02T05:11:54;22.33;;;20.33;;
19675;SDS011;39539;52.202;9.876;2023-05-02T05:14:19;19.55;;;17.90;;
19675;SDS011;39539;52.202;9.876;2023-05-02T05:16:46;19.80;;;18.17;;
19675;SDS011;39539;52.202;9.876;2023-05-02T05:19:11;19.55;;;17.77;;
19675;SDS011;39539;52.202;9.876;2023-05-02T05:21:37;18.98;;;17.38;;
19675;SDS011;39539;52.202;9.876;2023-05-02T05:24:02;17.77;;;16.20;;
19675;SDS011;39539;52.202;9.876;2023-05-02T05:26:27;17.63;;;16.02;;
19675;SDS011;39539;52.202;9.876;2023-05-02T05:28:53;16.88;;;15.35;;
19675;SDS011;39539;52.202;9.876;2023-05-02T05:31:18;17.10;;;15.60;;
19675;SDS011;39539;52.202;9.876;2023-05-02T05:33:44;17.95;;;16.35;;
19675;SDS011;39539;52.202;9.876;2023-05-02T05:36:10;16.23;;;14.82;;
19675;SDS011;39539;52.202;9.876;2023-05-02T05:38:40;14.10;;;13.00;;
19675;SDS011;39539;52.202;9.876;2023-05-02T05:41:06;14.52;;;13.27;;
19675;SDS011;39539;52.202;9.876;2023-05-02T05:43:36;14.52;;;13.23;;
19675;SDS011;39539;52.202;9.876;2023-05-02T05:46:01;14.20;;;13.00;;
19675;SDS011;39539;52.202;9.876;2023-05-02T05:48:27;14.30;;;12.93;;
19675;SDS011;39539;52.202;9.876;2023-05-02T05:50:53;14.93;;;13.63;;
19675;SDS011;39539;52.202;9.876;2023-05-02T05:53:33;14.07;;;12.85;;
19675;SDS011;39539;52.202;9.876;2023-05-02T05:56:19;13.27;;;12.07;;
19675;SDS011;39539;52.202;9.876;2023-05-02T05:58:48;10.77;;;9.98;;
19675;SDS011;39539;52.202;9.876;2023-05-02T06:01:14;6.47;;;6.07;;
19675;SDS011;39539;52.202;9.876;2023-05-02T06:03:40;5.20;;;4.80;;
19675;SDS011;39539;52.202;9.876;2023-05-02T06:06:07;4.43;;;4.05;;
19675;SDS011;39539;52.202;9.876;2023-05-02T06:08:32;4.47;;;4.15;;
19675;SDS011;39539;52.202;9.876;2023-05-02T06:10:59;4.20;;;3.90;;
19675;SDS011;39539;52.202;9.876;2023-05-02T06:13:26;3.50;;;3.20;;
19675;SDS011;39539;52.202;9.876;2023-05-02T06:15:51;3.53;;;3.22;;
19675;SDS011;39539;52.202;9.876;2023-05-02T06:18:16;4.22;;;3.20;;
19675;SDS011;39539;52.202;9.876;2023-05-02T06:20:42;3.05;;;2.85;;
19675;SDS011;39539;52.202;9.876;2023-05-02T06:23:08;4.05;;;3.05;;
19675;SDS011;39539;52.202;9.876;2023-05-02T06:25:36;2.88;;;2.30;;
19675;SDS011;39539;52.202;9.876;2023-05-02T06:28:02;3.22;;;2.83;;
19675;SDS011;39539;52.202;9.876;2023-05-02T06:30:27;3.47;;;2.80;;
19675;SDS011;39539;52.202;9.876;2023-05-02T06:32:52;3.58;;;3.00;;
19675;SDS011;39539;52.202;9.876;2023-05-02T06:35:18;5.55;;;2.97;;
19675;SDS011;39539;52.202;9.876;2023-05-02T06:37:45;3.47;;;3.10;;
19675;SDS011;39539;52.202;9.876;2023-05-02T06:40:10;4.43;;;3.20;;
19675;SDS011;39539;52.202;9.876;2023-05-02T06:42:38;5.03;;;3.58;;
19675;SDS011;39539;52.202;9.876;2023-05-02T06:45:04;3.92;;;3.35;;
19675;SDS011;39539;52.202;9.876;2023-05-02T06:47:30;4.97;;;3.80;;
19675;SDS011;39539;52.202;9.876;2023-05-02T06:49:55;5.50;;;3.42;;
19675;SDS011;39539;52.202;9.876;2023-05-02T06:52:21;6.18;;;4.00;;
19675;SDS011;39539;52.202;9.876;2023-05-02T06:54:48;5.73;;;3.90;;
19675;SDS011;39539;52.202;9.876;2023-05-02T06:57:13;4.78;;;3.88;;
19675;SDS011;39539;52.202;9.876;2023-05-02T06:59:39;6.63;;;4.10;;
19675;SDS011;39539;52.202;9.876;2023-05-02T07:02:06;6.82;;;3.63;;
19675;SDS011;39539;52.202;9.876;2023-05-02T07:04:32;7.53;;;4.07;;
19675;SDS011;39539;52.202;9.876;2023-05-02T07:06:57;5.95;;;3.80;;
19675;SDS011;39539;52.202;9.876;2023-05-02T07:09:22;6.68;;;4.18;;
19675;SDS011;39539;52.202;9.876;2023-05-02T07:11:48;6.70;;;4.10;;
19675;SDS011;39539;52.202;9.876;2023-05-02T07:14:13;7.07;;;3.83;;
19675;SDS011;39539;52.202;9.876;2023-05-02T07:16:39;6.50;;;3.78;;
19675;SDS011;39539;52.202;9.876;2023-05-02T07:19:05;5.90;;;3.90;;
19675;SDS011;39539;52.202;9.876;2023-05-02T07:21:30;5.82;;;4.00;;
19675;SDS011;39539;52.202;9.876;2023-05-02T07:23:56;5.97;;;4.03;;
19675;SDS011;39539;52.202;9.876;2023-05-02T07:26:22;6.75;;;4.20;;
19675;SDS011;39539;52.202;9.876;2023-05-02T07:28:47;7.68;;;4.65;;
19675;SDS011;39539;52.202;9.876;2023-05-02T07:31:13;5.45;;;4.05;;
19675;SDS011;39539;52.202;9.876;2023-05-02T07:33:38;7.32;;;4.18;;
19675;SDS011;39539;52.202;9.876;2023-05-02T07:36:04;7.50;;;4.60;;
19675;SDS011;39539;52.202;9.876;2023-05-02T07:38:29;7.97;;;4.45;;
19675;SDS011;39539;52.202;9.876;2023-05-02T07:40:58;7.13;;;4.85;;
19675;SDS011;39539;52.202;9.876;2023-05-02T07:43:25;8.63;;;4.72;;
19675;SDS011;39539;52.202;9.876;2023-05-02T07:45:50;7.18;;;4.25;;
19675;SDS011;39539;52.202;9.876;2023-05-02T07:48:16;6.80;;;4.20;;
19675;SDS011;39539;52.202;9.876;2023-05-02T07:50:41;7.13;;;4.65;;
19675;SDS011;39539;52.202;9.876;2023-05-02T07:53:07;7.18;;;4.50;;
19675;SDS011;39539;52.202;9.876;2023-05-02T07:55:33;9.35;;;4.72;;
19675;SDS011;39539;52.202;9.876;2023-05-02T07:57:59;5.97;;;4.32;;
19675;SDS011;39539;52.202;9.876;2023-05-02T08:00:24;7.25;;;4.25;;
19675;SDS011;39539;52.202;9.876;2023-05-02T08:02:51;8.18;;;4.07;;
19675;SDS011;39539;52.202;9.876;2023-05-02T08:05:16;7.55;;;4.20;;
19675;SDS011;39539;52.202;9.876;2023-05-02T08:07:42;6.63;;;4.40;;
19675;SDS011;39539;52.202;9.876;2023-05-02T08:10:07;8.50;;;5.65;;
19675;SDS011;39539;52.202;9.876;2023-05-02T08:12:39;8.75;;;4.68;;
19675;SDS011;39539;52.202;9.876;2023-05-02T08:15:06;7.28;;;3.90;;
19675;SDS011;39539;52.202;9.876;2023-05-02T08:17:32;8.18;;;4.03;;
19675;SDS011;39539;52.202;9.876;2023-05-02T08:19:58;7.93;;;4.40;;
19675;SDS011;39539;52.202;9.876;2023-05-02T08:22:25;9.13;;;4.80;;
19675;SDS011;39539;52.202;9.876;2023-05-02T08:24:50;7.25;;;4.40;;
19675;SDS011;39539;52.202;9.876;2023-05-02T08:27:16;9.00;;;4.43;;
19675;SDS011;39539;52.202;9.876;2023-05-02T08:29:41;8.20;;;4.80;;
19675;SDS011;39539;52.202;9.876;2023-05-02T08:32:07;8.73;;;5.20;;
19675;SDS011;39539;52.202;9.876;2023-05-02T08:34:32;7.82;;;5.10;;
19675;SDS011;39539;52.202;9.876;2023-05-02T08:36:58;7.60;;;4.88;;
19675;SDS011;39539;52.202;9.876;2023-05-02T08:39:23;8.13;;;4.60;;
19675;SDS011;39539;52.202;9.876;2023-05-02T08:41:49;11.68;;;4.85;;
19675;SDS011;39539;52.202;9.876;2023-05-02T08:44:14;8.38;;;5.30;;
19675;SDS011;39539;52.202;9.876;2023-05-02T08:46:40;8.30;;;5.18;;
19675;SDS011;39539;52.202;9.876;2023-05-02T08:49:08;10.05;;;5.45;;
19675;SDS011;39539;52.202;9.876;2023-05-02T08:51:35;9.85;;;5.18;;
19675;SDS011;39539;52.202;9.876;2023-05-02T08:54:02;7.75;;;5.18;;
19675;SDS011;39539;52.202;9.876;2023-05-02T08:56:28;5.70;;;4.22;;
19675;SDS011;39539;52.202;9.876;2023-05-02T08:58:56;9.73;;;3.80;;
19675;SDS011;39539;52.202;9.876;2023-05-02T09:01:22;6.20;;;3.83;;
19675;SDS011;39539;52.202;9.876;2023-05-02T09:03:48;10.60;;;4.53;;
19675;SDS011;39539;52.202;9.876;2023-05-02T09:06:15;6.93;;;4.03;;
19675;SDS011;39539;52.202;9.876;2023-05-02T09:08:46;7.32;;;4.13;;
19675;SDS011;39539;52.202;9.876;2023-05-02T09:11:13;7.53;;;3.95;;
19675;SDS011;39539;52.202;9.876;2023-05-02T09:13:41;7.05;;;3.97;;
19675;SDS011;39539;52.202;9.876;2023-05-02T09:16:14;6.18;;;3.75;;
19675;SDS011;39539;52.202;9.876;2023-05-02T09:18:47;9.38;;;4.50;;
19675;SDS011;39539;52.202;9.876;2023-05-02T09:21:24;7.80;;;3.63;;
19675;SDS011;39539;52.202;9.876;2023-05-02T09:23:59;8.38;;;3.88;;
19675;SDS011;39539;52.202;9.876;2023-05-02T09:26:28;7.57;;;3.95;;
19675;SDS011;39539;52.202;9.876;2023-05-02T09:28:56;5.72;;;3.60;;
19675;SDS011;39539;52.202;9.876;2023-05-02T09:31:33;5.63;;;3.88;;
19675;SDS011;39539;52.202;9.876;2023-05-02T09:34:11;6.40;;;3.70;;
19675;SDS011;39539;52.202;9.876;2023-05-02T09:36:38;5.53;;;3.83;;
19675;SDS011;39539;52.202;9.876;2023-05-02T09:39:10;6.50;;;3.80;;
19675;SDS011;39539;52.202;9.876;2023-05-02T09:41:41;9.05;;;3.85;;
19675;SDS011;39539;52.202;9.876;2023-05-02T09:44:08;8.77;;;4.55;;
19675;SDS011;39539;52.202;9.876;2023-05-02T09:46:38;9.07;;;4.82;;
19675;SDS011;39539;52.202;9.876;2023-05-02T09:49:08;10.15;;;5.00;;
19675;SDS011;39539;52.202;9.876;2023-05-02T09:51:36;14.02;;;5.75;;
19675;SDS011;39539;52.202;9.876;2023-05-02T09:54:02;8.73;;;5.20;;
19675;SDS011;39539;52.202;9.876;2023-05-02T09:56:29;7.82;;;6.25;;
19675;SDS011;39539;52.202;9.876;2023-05-02T10:01:41;7.28;;;5.30;;
19675;SDS011;39539;52.202;9.876;2023-05-02T10:04:13;6.82;;;5.07;;
19675;SDS011;39539;52.202;9.876;2023-05-02T10:06:43;6.93;;;4.13;;
19675;SDS011;39539;52.202;9.876;2023-05-02T10:09:09;5.13;;;3.80;;
19675;SDS011;39539;52.202;9.876;2023-05-02T10:11:37;5.82;;;4.03;;
19675;SDS011;39539;52.202;9.876;2023-05-02T10:14:11;5.68;;;4.28;;
19675;SDS011;39539;52.202;9.876;2023-05-02T10:16:39;5.32;;;4.18;;
19675;SDS011;39539;52.202;9.876;2023-05-02T10:19:16;4.80;;;4.40;;
19675;SDS011;39539;52.202;9.876;2023-05-02T10:21:51;5.43;;;4.35;;
19675;SDS011;39539;52.202;9.876;2023-05-02T10:24:17;9.18;;;4.53;;
19675;SDS011;39539;52.202;9.876;2023-05-02T10:26:44;5.97;;;4.10;;
19675;SDS011;39539;52.202;9.876;2023-05-02T10:29:11;5.85;;;3.88;;
19675;SDS011;39539;52.202;9.876;2023-05-02T10:31:36;5.20;;;3.47;;
19675;SDS011;39539;52.202;9.876;2023-05-02T10:34:03;6.75;;;3.92;;
19675;SDS011;39539;52.202;9.876;2023-05-02T10:36:31;5.47;;;3.58;;
19675;SDS011;39539;52.202;9.876;2023-05-02T10:38:57;7.03;;;3.75;;
19675;SDS011;39539;52.202;9.876;2023-05-02T10:41:24;4.90;;;3.83;;
19675;SDS011;39539;52.202;9.876;2023-05-02T10:43:51;6.38;;;3.80;;
19675;SDS011;39539;52.202;9.876;2023-05-02T10:46:39;6.82;;;4.18;;
19675;SDS011;39539;52.202;9.876;2023-05-02T10:49:07;10.27;;;3.88;;
19675;SDS011;39539;52.202;9.876;2023-05-02T10:51:35;4.75;;;3.50;;
19675;SDS011;39539;52.202;9.876;2023-05-02T10:59:27;5.40;;;3.30;;
19675;SDS011;39539;52.202;9.876;2023-05-02T11:01:54;5.55;;;3.28;;
19675;SDS011;39539;52.202;9.876;2023-05-02T11:04:20;5.28;;;3.70;;
19675;SDS011;39539;52.202;9.876;2023-05-02T11:11:53;4.65;;;3.40;;
19675;SDS011;39539;52.202;9.876;2023-05-02T11:24:46;3.72;;;3.03;;
19675;SDS011;39539;52.202;9.876;2023-05-02T11:29:53;3.38;;;2.95;;
19675;SDS011;39539;52.202;9.876;2023-05-02T11:32:20;5.53;;;3.20;;
19675;SDS011;39539;52.202;9.876;2023-05-02T11:34:46;5.25;;;3.03;;
19675;SDS011;39539;52.202;9.876;2023-05-02T11:37:15;5.78;;;3.00;;
19675;SDS011;39539;52.202;9.876;2023-05-02T11:39:46;5.57;;;2.97;;
19675;SDS011;39539;52.202;9.876;2023-05-02T11:42:28;3.70;;;2.83;;
19675;SDS011;39539;52.202;9.876;2023-05-02T11:44:59;5.85;;;3.25;;
19675;SDS011;39539;52.202;9.876;2023-05-02T11:47:25;4.40;;;2.40;;
19675;SDS011;39539;52.202;9.876;2023-05-02T11:49:55;4.68;;;2.83;;
19675;SDS011;39539;52.202;9.876;2023-05-02T11:52:22;7.13;;;3.28;;
19675;SDS011;39539;52.202;9.876;2023-05-02T11:54:52;3.92;;;2.90;;
19675;SDS011;39539;52.202;9.876;2023-05-02T11:57:19;4.40;;;2.75;;
19675;SDS011;39539;52.202;9.876;2023-05-02T11:59:55;6.40;;;4.07;;
19675;SDS011;39539;52.202;9.876;2023-05-02T12:02:37;5.57;;;3.88;;
19675;SDS011;39539;52.202;9.876;2023-05-02T12:05:08;6.88;;;4.43;;
19675;SDS011;39539;52.202;9.876;2023-05-02T12:07:47;6.60;;;4.13;;
19675;SDS011;39539;52.202;9.876;2023-05-02T12:13:07;4.93;;;4.00;;
19675;SDS011;39539;52.202;9.876;2023-05-02T12:15:33;6.38;;;4.40;;
19675;SDS011;39539;52.202;9.876;2023-05-02T12:20:49;5.45;;;4.18;;
19675;SDS011;39539;52.202;9.876;2023-05-02T12:23:21;5.28;;;3.97;;
19675;SDS011;39539;52.202;9.876;2023-05-02T12:25:48;4.03;;;3.45;;
19675;SDS011;39539;52.202;9.876;2023-05-02T12:28:16;7.38;;;4.28;;
19675;SDS011;39539;52.202;9.876;2023-05-02T12:30:43;7.45;;;4.65;;
19675;SDS011;39539;52.202;9.876;2023-05-02T12:33:16;5.45;;;4.03;;
19675;SDS011;39539;52.202;9.876;2023-05-02T12:35:43;4.45;;;3.53;;
19675;SDS011;39539;52.202;9.876;2023-05-02T12:38:14;6.15;;;3.22;;
19675;SDS011;39539;52.202;9.876;2023-05-02T12:40:48;7.95;;;3.75;;
19675;SDS011;39539;52.202;9.876;2023-05-02T12:43:16;7.05;;;3.55;;
19675;SDS011;39539;52.202;9.876;2023-05-02T12:45:42;5.30;;;3.53;;
19675;SDS011;39539;52.202;9.876;2023-05-02T12:48:23;6.38;;;3.15;;
19675;SDS011;39539;52.202;9.876;2023-05-02T12:50:56;5.47;;;3.00;;
19675;SDS011;39539;52.202;9.876;2023-05-02T12:53:40;4.45;;;2.92;;
19675;SDS011;39539;52.202;9.876;2023-05-02T12:56:13;4.80;;;3.15;;
19675;SDS011;39539;52.202;9.876;2023-05-02T12:58:45;7.63;;;3.20;;
19675;SDS011;39539;52.202;9.876;2023-05-02T13:01:13;4.22;;;3.10;;
19675;SDS011;39539;52.202;9.876;2023-05-02T13:03:41;4.60;;;3.42;;
19675;SDS011;39539;52.202;9.876;2023-05-02T13:06:12;7.80;;;3.85;;
19675;SDS011;39539;52.202;9.876;2023-05-02T13:08:38;4.85;;;3.55;;
19675;SDS011;39539;52.202;9.876;2023-05-02T13:11:03;4.38;;;3.97;;
19675;SDS011;39539;52.202;9.876;2023-05-02T13:13:29;6.45;;;3.88;;
19675;SDS011;39539;52.202;9.876;2023-05-02T13:15:55;6.38;;;3.65;;
19675;SDS011;39539;52.202;9.876;2023-05-02T13:18:23;7.53;;;4.05;;
19675;SDS011;39539;52.202;9.876;2023-05-02T13:20:49;3.97;;;3.45;;
19675;SDS011;39539;52.202;9.876;2023-05-02T13:23:15;3.97;;;3.53;;
19675;SDS011;39539;52.202;9.876;2023-05-02T13:25:41;4.70;;;3.40;;
19675;SDS011;39539;52.202;9.876;2023-05-02T13:28:08;4.68;;;4.15;;
19675;SDS011;39539;52.202;9.876;2023-05-02T13:30:34;5.90;;;3.70;;
19675;SDS011;39539;52.202;9.876;2023-05-02T13:32:59;4.60;;;3.45;;
19675;SDS011;39539;52.202;9.876;2023-05-02T13:35:25;4.32;;;3.45;;
19675;SDS011;39539;52.202;9.876;2023-05-02T13:37:50;5.05;;;3.72;;
19675;SDS011;39539;52.202;9.876;2023-05-02T13:40:16;4.53;;;3.60;;
19675;SDS011;39539;52.202;9.876;2023-05-02T13:42:41;4.80;;;3.13;;
19675;SDS011;39539;52.202;9.876;2023-05-02T13:45:07;7.65;;;4.00;;
19675;SDS011;39539;52.202;9.876;2023-05-02T13:47:33;4.70;;;3.33;;
19675;SDS011;39539;52.202;9.876;2023-05-02T13:49:58;5.75;;;3.50;;
19675;SDS011;39539;52.202;9.876;2023-05-02T13:52:23;4.35;;;3.45;;
19675;SDS011;39539;52.202;9.876;2023-05-02T13:54:50;6.22;;;3.83;;
19675;SDS011;39539;52.202;9.876;2023-05-02T13:57:15;4.65;;;3.10;;
19675;SDS011;39539;52.202;9.876;2023-05-02T13:59:41;7.68;;;3.28;;
19675;SDS011;39539;52.202;9.876;2023-05-02T14:02:06;3.30;;;3.00;;
19675;SDS011;39539;52.202;9.876;2023-05-02T14:04:32;3.92;;;3.03;;
19675;SDS011;39539;52.202;9.876;2023-05-02T14:06:57;3.35;;;2.90;;
19675;SDS011;39539;52.202;9.876;2023-05-02T14:09:22;4.35;;;3.10;;
19675;SDS011;39539;52.202;9.876;2023-05-02T14:11:48;14.18;;;2.75;;
19675;SDS011;39539;52.202;9.876;2023-05-02T14:14:13;4.05;;;2.83;;
19675;SDS011;39539;52.202;9.876;2023-05-02T14:16:39;4.25;;;3.30;;
19675;SDS011;39539;52.202;9.876;2023-05-02T14:19:05;3.72;;;2.72;;
19675;SDS011;39539;52.202;9.876;2023-05-02T14:21:30;4.22;;;2.85;;
19675;SDS011;39539;52.202;9.876;2023-05-02T14:23:56;3.88;;;3.00;;
19675;SDS011;39539;52.202;9.876;2023-05-02T14:26:22;4.50;;;2.92;;
19675;SDS011;39539;52.202;9.876;2023-05-02T14:28:48;3.30;;;2.78;;
19675;SDS011;39539;52.202;9.876;2023-05-02T14:31:13;3.35;;;2.80;;
19675;SDS011;39539;52.202;9.876;2023-05-02T14:33:39;3.13;;;2.70;;
19675;SDS011;39539;52.202;9.876;2023-05-02T14:36:04;2.65;;;2.42;;
19675;SDS011;39539;52.202;9.876;2023-05-02T14:38:31;2.95;;;2.35;;
19675;SDS011;39539;52.202;9.876;2023-05-02T14:40:57;2.60;;;2.40;;
19675;SDS011;39539;52.202;9.876;2023-05-02T14:43:22;3.03;;;2.53;;
19675;SDS011;39539;52.202;9.876;2023-05-02T14:45:49;2.33;;;2.13;;
19675;SDS011;39539;52.202;9.876;2023-05-02T14:48:14;2.47;;;2.28;;
19675;SDS011;39539;52.202;9.876;2023-05-02T14:50:41;3.22;;;2.33;;
19675;SDS011;39539;52.202;9.876;2023-05-02T14:53:07;5.38;;;2.30;;
19675;SDS011;39539;52.202;9.876;2023-05-02T14:55:36;2.47;;;2.20;;
19675;SDS011;39539;52.202;9.876;2023-05-02T14:58:05;3.75;;;2.10;;
19675;SDS011;39539;52.202;9.876;2023-05-02T15:00:36;3.55;;;2.50;;
19675;SDS011;39539;52.202;9.876;2023-05-02T15:03:05;3.28;;;2.20;;
19675;SDS011;39539;52.202;9.876;2023-05-02T15:05:31;2.60;;;2.40;;
19675;SDS011;39539;52.202;9.876;2023-05-02T15:07:57;3.13;;;2.75;;
19675;SDS011;39539;52.202;9.876;2023-05-02T15:10:23;2.60;;;2.40;;
19675;SDS011;39539;52.202;9.876;2023-05-02T15:12:48;4.15;;;2.58;;
19675;SDS011;39539;52.202;9.876;2023-05-02T15:15:17;2.60;;;2.40;;
19675;SDS011;39539;52.202;9.876;2023-05-02T15:17:43;4.22;;;2.75;;
19675;SDS011;39539;52.202;9.876;2023-05-02T15:20:10;2.63;;;2.42;;
19675;SDS011;39539;52.202;9.876;2023-05-02T15:22:36;3.40;;;2.38;;
19675;SDS011;39539;52.202;9.876;2023-05-02T15:25:02;2.95;;;2.30;;
19675;SDS011;39539;52.202;9.876;2023-05-02T15:27:27;3.17;;;2.40;;
19675;SDS011;39539;52.202;9.876;2023-05-02T15:29:53;4.22;;;2.40;;
19675;SDS011;39539;52.202;9.876;2023-05-02T15:32:18;2.50;;;2.30;;
19675;SDS011;39539;52.202;9.876;2023-05-02T15:34:43;2.22;;;2.03;;